Time;durP1;ratioP1;P1;durP2;ratioP2;P2;SDS_P1;SDS_P2;PMS_P1;PMS_P2;Temp;Humidity;BMP_temperature;BMP_pressure;BME280_temperature;BME280_humidity;BME280_pressure;Samples;Min_cycle;Max_cycle;Signal;HPM_P1;HPM_P2
2022/05/12 00:06:21;;;;;;;1.17;0.40;;;12.00;99.90;;;;;;20437239;28;20399;-40
2022/05/12 00:16:23;;;;;;;9.10;1.10;;;11.80;99.90;;;;;;20426454;28;20063;-40
2022/05/12 00:26:30;;;;;;;2.22;0.60;;;11.70;99.90;;;;;;20425905;28;20146;-40
2022/05/12 00:36:37;;;;;;;2.58;0.40;;;11.50;99.90;;;;;;20438921;28;20035;-40
2022/05/12 00:46:40;;;;;;;10.40;1.58;;;11.30;99.90;;;;;;20428504;28;20507;-40
2022/05/12 00:56:42;;;;;;;1.13;0.40;;;11.30;99.90;;;;;;20427996;28;20336;-40
2022/05/12 01:06:43;;;;;;;1.88;0.50;;;11.30;99.90;;;;;;20435811;28;20071;-40
2022/05/12 01:16:47;;;;;;;3.58;1.08;;;11.30;99.90;;;;;;20444844;28;20071;-40
2022/05/12 01:26:49;;;;;;;4.88;0.50;;;11.30;99.90;;;;;;20430134;28;20048;-40
2022/05/12 01:36:50;;;;;;;1.27;0.50;;;11.40;99.90;;;;;;20440888;28;20035;-40
2022/05/12 01:46:51;;;;;;;1.50;0.57;;;11.30;99.90;;;;;;20429379;28;20415;-40
2022/05/12 01:56:52;;;;;;;1.40;0.52;;;11.20;99.90;;;;;;20437188;28;20522;-40
2022/05/12 02:06:53;;;;;;;2.42;0.98;;;11.20;99.90;;;;;;20439801;28;20483;-40
2022/05/12 02:16:54;;;;;;;5.63;1.17;;;11.20;99.90;;;;;;20424917;28;20063;-40
2022/05/12 02:26:56;;;;;;;3.75;1.15;;;11.30;99.90;;;;;;20433612;28;20054;-40
2022/05/12 02:37:01;;;;;;;5.30;1.40;;;11.20;99.90;;;;;;20446049;28;20047;-40
2022/05/12 02:47:03;;;;;;;4.75;1.48;;;11.20;99.90;;;;;;20435255;28;20059;-40
2022/05/12 02:57:05;;;;;;;5.03;1.70;;;11.10;99.90;;;;;;20436796;28;20525;-40
2022/05/12 03:07:06;;;;;;;4.85;1.85;;;11.10;99.90;;;;;;20432805;28;20050;-40
2022/05/12 03:17:07;;;;;;;3.50;1.42;;;11.10;99.90;;;;;;20428736;28;20035;-40
2022/05/12 03:27:09;;;;;;;4.47;1.33;;;11.10;99.90;;;;;;20431102;28;20043;-40
2022/05/12 03:37:11;;;;;;;3.10;1.40;;;11.10;99.90;;;;;;20429045;28;20123;-40
2022/05/12 03:47:14;;;;;;;4.68;1.77;;;11.00;99.90;;;;;;20423066;28;20191;-40
2022/05/12 03:57:16;;;;;;;3.65;1.65;;;10.90;99.90;;;;;;20424185;28;20062;-40
2022/05/12 04:07:20;;;;;;;5.05;1.55;;;10.90;99.90;;;;;;20432847;28;20059;-40
2022/05/12 04:17:22;;;;;;;2.80;1.38;;;10.90;99.90;;;;;;20443825;28;20071;-40
2022/05/12 04:27:23;;;;;;;2.63;1.42;;;10.90;99.90;;;;;;20461452;28;20505;-40
2022/05/12 04:37:30;;;;;;;4.13;1.83;;;10.80;99.90;;;;;;20439031;28;20414;-40
2022/05/12 04:47:32;;;;;;;;;;;10.90;99.90;;;;;;20453369;28;20554;-40
2022/05/12 04:57:38;;;;;;;3.63;1.05;;;11.00;99.90;;;;;;20445792;28;19910;-40
2022/05/12 05:07:39;;;;;;;2.75;1.08;;;11.10;99.90;;;;;;20431514;28;21557;-40
2022/05/12 05:17:41;;;;;;;4.93;1.45;;;11.40;99.90;;;;;;20432324;28;20066;-40
2022/05/12 05:27:42;;;;;;;3.25;1.25;;;11.60;99.90;;;;;;20441964;28;20044;-40
2022/05/12 05:37:45;;;;;;;2.75;1.13;;;11.80;99.90;;;;;;20444991;28;20507;-40
2022/05/12 05:47:51;;;;;;;2.05;0.98;;;12.00;99.90;;;;;;20441159;28;20530;-40
2022/05/12 05:57:53;;;;;;;3.95;1.25;;;12.10;99.90;;;;;;20443731;28;20380;-40
2022/05/12 06:07:54;;;;;;;3.65;1.33;;;12.40;99.90;;;;;;20440848;28;20052;-40
2022/05/12 06:17:55;;;;;;;3.80;1.30;;;12.40;99.90;;;;;;20448645;28;20059;-40
2022/05/12 06:27:56;;;;;;;3.13;1.42;;;12.60;99.90;;;;;;20422809;28;20046;-40
2022/05/12 06:37:58;;;;;;;1.98;0.98;;;12.80;99.90;;;;;;20437386;28;20042;-40
2022/05/12 06:47:59;;;;;;;1.48;0.80;;;13.20;99.90;;;;;;20427921;28;20471;-40
2022/05/12 06:58:01;;;;;;;1.88;0.88;;;13.10;99.90;;;;;;20437280;28;20043;-40
2022/05/12 07:08:02;;;;;;;3.05;0.95;;;13.20;99.90;;;;;;20427933;28;20043;-40
2022/05/12 07:18:03;;;;;;;1.67;0.70;;;13.30;99.90;;;;;;20439130;28;20042;-40
2022/05/12 07:28:04;;;;;;;1.75;0.75;;;13.60;99.90;;;;;;20431288;28;20039;-40
2022/05/12 07:38:05;;;;;;;1.75;0.80;;;13.70;99.90;;;;;;20436552;28;20039;-40
2022/05/12 07:48:07;;;;;;;1.58;0.70;;;14.00;99.90;;;;;;20437936;28;20488;-40
2022/05/12 07:58:11;;;;;;;2.67;0.82;;;14.20;99.90;;;;;;20440877;28;20043;-40
2022/05/12 08:08:12;;;;;;;1.23;0.52;;;14.30;99.90;;;;;;20430219;28;20039;-40
2022/05/12 08:18:17;;;;;;;1.70;0.60;;;14.70;99.90;;;;;;20434893;28;20051;-40
2022/05/12 08:28:21;;;;;;;4.20;0.90;;;15.00;99.90;;;;;;20437901;28;20047;-40
2022/05/12 08:38:25;;;;;;;3.03;0.60;;;15.20;99.90;;;;;;20438957;28;20043;-40
2022/05/12 08:48:26;;;;;;;1.85;0.50;;;15.40;99.90;;;;;;20439121;28;20048;-40
2022/05/12 08:58:39;;;;;;;3.10;0.63;;;15.80;99.90;;;;;;20435839;28;20075;-40
2022/05/12 09:08:57;;;;;;;0.70;0.60;;;16.00;99.90;;;;;;20434065;28;20559;-40
2022/05/12 09:18:59;;;;;;;2.05;0.30;;;16.20;99.90;;;;;;20441663;28;24868;-40
2022/05/12 09:29:25;;;;;;;1.92;0.38;;;16.60;99.90;;;;;;20432957;28;20540;-40
2022/05/12 09:39:38;;;;;;;1.25;0.47;;;16.90;99.90;;;;;;20421406;28;20039;-39
2022/05/12 09:49:41;;;;;;;0.80;0.20;;;17.10;99.90;;;;;;20433024;28;20036;-40
2022/05/12 09:59:55;;;;;;;1.42;0.50;;;17.50;99.90;;;;;;20436639;28;20051;-40
2022/05/12 10:10:10;;;;;;;1.23;0.30;;;17.70;99.90;;;;;;20436019;28;20036;-40
2022/05/12 10:20:13;;;;;;;1.00;0.30;;;18.00;99.90;;;;;;20422241;28;20046;-40
2022/05/12 10:30:19;;;;;;;1.55;0.50;;;18.10;99.90;;;;;;20434893;28;20043;-40
2022/05/12 10:40:22;;;;;;;2.70;0.77;;;17.80;99.40;;;;;;20418705;28;20044;-40
2022/05/12 10:50:36;;;;;;;1.90;0.82;;;17.30;99.90;;;;;;20453064;28;20050;-40
2022/05/12 11:00:48;;;;;;;0.40;0.20;;;17.90;99.90;;;;;;20428381;28;20131;-40
2022/05/12 11:10:52;;;;;;;1.13;0.50;;;18.40;99.90;;;;;;20428970;28;20365;-41
2022/05/12 11:21:06;;;;;;;0.93;0.38;;;18.70;98.80;;;;;;20439265;28;20051;-40
2022/05/12 11:31:26;;;;;;;6.72;0.40;;;18.70;97.60;;;;;;20416273;28;20055;-40
2022/05/12 11:41:38;;;;;;;2.28;1.38;;;18.30;98.70;;;;;;20410245;28;20036;-40
2022/05/12 11:51:57;;;;;;;0.95;0.35;;;18.60;98.60;;;;;;20429657;28;20058;-40
2022/05/12 12:02:25;;;;;;;0.93;0.40;;;18.80;98.70;;;;;;20418333;28;20462;-40
2022/05/12 12:12:45;;;;;;;;;;;18.70;99.20;;;;;;20431334;28;20044;-40
2022/05/12 12:22:49;;;;;;;0.60;0.22;;;19.10;96.60;;;;;;20427970;28;20361;-40
2022/05/12 12:33:35;;;;;;;0.50;0.20;;;18.80;98.50;;;;;;20432647;28;20530;-40
2022/05/12 12:43:42;;;;;;;1.63;0.30;;;18.70;96.60;;;;;;20439054;28;20036;-40
2022/05/12 13:04:08;;;;;;;1.30;0.40;;;18.40;96.90;;;;;;20413795;28;20046;-40
2022/05/12 13:14:14;;;;;;;1.13;0.40;;;18.80;97.60;;;;;;20419795;28;20072;-40
2022/05/12 13:24:22;;;;;;;0.63;0.30;;;18.70;98.40;;;;;;20430346;28;20555;-40
2022/05/12 13:34:27;;;;;;;;;;;19.00;96.90;;;;;;20436450;28;20070;-40
2022/05/12 13:44:29;;;;;;;2.22;0.40;;;19.80;95.80;;;;;;20439607;28;19922;-40
2022/05/12 13:54:37;;;;;;;2.92;0.40;;;19.50;94.80;;;;;;20438075;28;20044;-40
2022/05/12 14:04:39;;;;;;;1.13;0.40;;;20.20;95.90;;;;;;20421835;28;20039;-41
2022/05/12 14:25:00;;;;;;;1.45;0.38;;;19.60;96.70;;;;;;20399358;28;20062;-40
2022/05/12 14:35:01;;;;;;;0.90;0.38;;;20.00;94.50;;;;;;20435989;28;20039;-40
2022/05/12 14:45:04;;;;;;;0.63;0.20;;;19.80;95.00;;;;;;20437359;28;20071;-40
2022/05/12 14:55:06;;;;;;;0.95;0.20;;;19.60;93.20;;;;;;20422188;28;20040;-41
2022/05/12 15:05:09;;;;;;;0.63;0.17;;;19.80;93.70;;;;;;20440945;28;20043;-40
2022/05/12 15:15:13;;;;;;;1.77;0.30;;;19.80;92.70;;;;;;20440135;28;20043;-39
2022/05/12 15:25:14;;;;;;;1.73;0.55;;;19.70;91.70;;;;;;20435412;28;20047;-40
2022/05/12 15:35:15;;;;;;;1.13;0.77;;;19.60;93.30;;;;;;20423535;28;20419;-40
2022/05/12 15:45:16;;;;;;;1.45;0.30;;;19.60;93.90;;;;;;20441515;28;20821;-40
2022/05/12 15:55:17;;;;;;;4.82;0.30;;;19.30;95.50;;;;;;20440358;28;20098;-40
2022/05/12 16:05:19;;;;;;;0.75;0.30;;;19.40;95.80;;;;;;20449188;28;20149;-40
2022/05/12 16:15:25;;;;;;;1.00;0.38;;;19.10;96.50;;;;;;20454416;28;20044;-40
2022/05/12 16:25:27;;;;;;;3.15;0.70;;;18.90;97.00;;;;;;20446263;28;20066;-40
2022/05/12 16:35:29;;;;;;;2.20;0.47;;;18.80;96.00;;;;;;20437177;28;20405;-40
2022/05/12 16:45:31;;;;;;;1.08;0.50;;;18.60;97.20;;;;;;20442510;28;20499;-40
2022/05/12 16:55:33;;;;;;;1.77;0.25;;;18.30;96.60;;;;;;20434351;28;20040;-40
2022/05/12 17:05:36;;;;;;;0.40;0.17;;;18.10;96.70;;;;;;20446402;28;20039;-40
2022/05/12 17:15:39;;;;;;;0.40;0.10;;;18.20;96.00;;;;;;20445834;28;20069;-40
2022/05/12 17:25:40;;;;;;;0.50;0.28;;;17.90;97.10;;;;;;20433383;28;20523;-40
2022/05/12 17:35:41;;;;;;;1.10;0.17;;;17.70;97.10;;;;;;20430758;28;20179;-40
2022/05/12 17:45:42;;;;;;;0.25;0.10;;;17.40;97.80;;;;;;20432026;28;20043;-40
2022/05/12 17:55:43;;;;;;;1.30;0.08;;;17.50;98.30;;;;;;20434639;28;20411;-40
2022/05/12 18:05:47;;;;;;;0.90;0.20;;;17.20;98.70;;;;;;20428358;28;20055;-40
2022/05/12 18:15:51;;;;;;;0.93;0.30;;;17.00;99.80;;;;;;20434723;28;20381;-40
2022/05/12 18:25:52;;;;;;;1.00;0.30;;;16.80;99.90;;;;;;20433969;28;20524;-41
2022/05/12 18:35:53;;;;;;;0.57;0.30;;;16.50;99.30;;;;;;20431281;28;20044;-41
2022/05/12 18:45:56;;;;;;;0.75;0.55;;;16.20;99.40;;;;;;20424319;28;20519;-40
2022/05/12 18:55:58;;;;;;;1.85;0.20;;;16.10;99.00;;;;;;20421743;28;20035;-40
2022/05/12 19:06:00;;;;;;;1.35;0.10;;;15.80;99.90;;;;;;20438013;28;20451;-40
2022/05/12 19:16:01;;;;;;;2.50;1.15;;;15.50;99.90;;;;;;20424708;28;20040;-40
2022/05/12 19:26:03;;;;;;;1.38;0.22;;;15.40;99.90;;;;;;20431664;28;20051;-40
2022/05/12 19:36:04;;;;;;;0.73;0.35;;;15.20;99.90;;;;;;20449062;28;20059;-40
2022/05/12 19:46:06;;;;;;;0.30;0.10;;;14.80;99.90;;;;;;20437708;28;20054;-40
2022/05/12 19:56:07;;;;;;;1.55;0.30;;;14.60;99.90;;;;;;20454541;28;20035;-40
2022/05/12 20:06:08;;;;;;;0.75;0.30;;;14.30;99.90;;;;;;20438447;28;20046;-40
2022/05/12 20:16:09;;;;;;;1.25;0.30;;;14.30;99.90;;;;;;20451827;28;20044;-40
2022/05/12 20:26:10;;;;;;;3.65;0.28;;;14.10;99.90;;;;;;20444667;28;20042;-39
2022/05/12 20:36:11;;;;;;;1.27;0.20;;;13.90;99.90;;;;;;20449859;28;20073;-40
2022/05/12 20:46:12;;;;;;;0.70;0.20;;;13.70;99.90;;;;;;20439088;28;20044;-40
2022/05/12 20:56:17;;;;;;;1.05;0.40;;;13.50;99.90;;;;;;20453389;28;20399;-40
2022/05/12 21:06:19;;;;;;;1.40;0.63;;;13.40;99.90;;;;;;20453579;28;20051;-40
2022/05/12 21:16:20;;;;;;;6.57;0.70;;;13.30;99.90;;;;;;20442460;28;20051;-40
2022/05/12 21:26:22;;;;;;;3.55;1.27;;;13.30;99.90;;;;;;20445392;28;20063;-40
2022/05/12 21:36:23;;;;;;;1.02;0.35;;;13.20;99.90;;;;;;20444901;28;20496;-40
2022/05/12 21:46:25;;;;;;;2.75;0.60;;;13.10;99.90;;;;;;20456552;28;20496;-40
2022/05/12 21:56:28;;;;;;;3.42;0.57;;;13.10;99.90;;;;;;20455988;28;20050;-40
2022/05/12 22:06:36;;;;;;;0.77;0.28;;;13.00;99.90;;;;;;20437379;28;20051;-39
2022/05/12 22:16:38;;;;;;;4.33;0.70;;;13.00;99.90;;;;;;20444128;28;20462;-39
2022/05/12 22:26:41;;;;;;;2.17;1.13;;;13.10;99.90;;;;;;20451807;28;20526;-39
2022/05/12 22:36:42;;;;;;;1.27;0.65;;;13.00;99.90;;;;;;20445639;28;20047;-40
2022/05/12 22:46:46;;;;;;;1.33;0.28;;;12.80;99.90;;;;;;20434705;28;20043;-40
2022/05/12 22:56:47;;;;;;;1.13;0.43;;;12.60;99.90;;;;;;20445652;28;20417;-40
2022/05/12 23:06:48;;;;;;;1.52;0.50;;;12.40;99.90;;;;;;20454688;28;20043;-40
2022/05/12 23:16:49;;;;;;;0.93;0.50;;;12.30;99.90;;;;;;20440128;28;20054;-41
2022/05/12 23:26:51;;;;;;;1.13;0.52;;;12.20;99.90;;;;;;20438095;28;20044;-40
2022/05/12 23:36:52;;;;;;;4.15;0.45;;;12.10;99.90;;;;;;20443672;28;20062;-40
2022/05/12 23:46:53;;;;;;;1.60;0.45;;;12.10;99.90;;;;;;20421979;28;20636;-40
2022/05/12 23:56:54;;;;;;;2.53;0.38;;;12.10;99.90;;;;;;20422196;28;20062;-39
